Aérodrome :
LOGIN :

S'inscrire | Disclaimer

   EN    FR    IT 

 










Légende :    VFR   VFR Marginal   IFR   IFR Intensif   IFR Très Intensif
Visi : 
Plafond : 
>= 8 km
>= 3000ft
5 à 8 km
1000 à 3000 ft
1500m à 5 km
500 à 1000 ft
800 à 1500m
200 à 500 ft
< 800m
< 200 ft
Symboles :   Orages  Brouillard  Fortes neiges  Fortes précipitations  Vent > 20 kt
SIGMETs :   Divers  Orages  Givrage  Turbulence  Onde Orograph.  Cendres Volcan.






- Altitude de l'aérodrome : 20 ft
- Code IATA : TIV


LYTV - Tivat - Montenegro

DERNIER METAR :
  • 150430Z 00000KT CAVOK 09/09 Q1018 TEMPO 3000 BR

METARs EXPIRÉS :
  • 150400Z VRB02KT 9999 1500SE BR NSC 09/09 Q1018 NOSIG
  • 150330Z VRB01KT CAVOK 10/10 Q1018
  • 150300Z VRB01KT CAVOK 09/09 Q1018
  • 150230Z 00000KT CAVOK 09/09 Q1019
  • 150200Z VRB01KT CAVOK 09/09 Q1019

TAF TAF LYTV
Valide du 15 à 00h jusqu'au 16 à 00h UTC


142300Z 1500/1524 VRB02KT CAVOK TX26/1513Z TN09/1503Z
PROB40
TEMPO 1504/1506 3000 BR



MET'MAP, la Météo Aéronautique d'un coup d'oeil ! - Copyright ORBIFLY Décembre 2007 - Disclaimer

ORBIFLY MET'MAP TEAM :

Programmation & Développement : Alexandra Zaïnal
Conception & Développement : Baudouin d'Aumeries
Co-Programmation & Développement : Marc-Olivier Méhu
Soutien technique & logistique : Manuel Goepfert

Contact : metmap@orbifly.com




SOURCES & CREDITS :

   NOAA